Time;durP1;ratioP1;P1;durP2;ratioP2;P2;SDS_P1;SDS_P2;PMS_P1;PMS_P2;Temp;Humidity;BMP_temperature;BMP_pressure;BME280_temperature;BME280_humidity;BME280_pressure;Samples;Min_cycle;Max_cycle;Signal;HPM_P1;HPM_P2
2023/12/07 00:00:24;;;;;;;140.40;51.20;;;;;;;-1.72;100.00;100790.00;214327;1288;140467;-87
2023/12/07 00:05:25;;;;;;;131.80;47.90;;;;;;;-1.77;100.00;100793.89;214855;1294;140074;-87
2023/12/07 00:10:26;;;;;;;126.10;49.20;;;;;;;-1.77;100.00;100795.17;214418;1293;140302;-86
2023/12/07 00:15:26;;;;;;;131.70;50.00;;;;;;;-1.75;100.00;100800.12;215004;1291;139839;-87
2023/12/07 00:20:27;;;;;;;162.00;57.20;;;;;;;-1.78;100.00;100801.02;214222;1292;141410;-87
2023/12/07 00:25:27;;;;;;;156.00;53.30;;;;;;;-1.80;100.00;100790.79;215115;1289;99398;-88
2023/12/07 00:30:28;;;;;;;142.40;50.90;;;;;;;-1.83;100.00;100795.30;214520;1288;140894;-88
2023/12/07 00:35:29;;;;;;;125.60;47.40;;;;;;;-1.79;100.00;100798.71;214799;1288;139713;-87
2023/12/07 00:40:29;;;;;;;138.90;51.10;;;;;;;-1.77;100.00;100800.90;214075;1291;140475;-87
2023/12/07 00:45:30;;;;;;;134.40;49.80;;;;;;;-1.76;100.00;100804.19;214833;1292;139999;-87
2023/12/07 00:50:31;;;;;;;125.40;45.80;;;;;;;-1.74;100.00;100806.05;214760;1289;141035;-87
2023/12/07 00:55:31;;;;;;;139.00;49.30;;;;;;;-1.74;100.00;100804.76;215592;1289;97922;-89
2023/12/07 01:00:32;;;;;;;129.10;47.40;;;;;;;-1.73;100.00;100808.83;214911;1289;141216;-89
2023/12/07 01:05:32;;;;;;;130.50;48.70;;;;;;;-1.70;100.00;100813.40;215217;1294;140085;-89
2023/12/07 01:10:33;;;;;;;126.80;46.50;;;;;;;-1.68;100.00;100818.11;214890;1290;142141;-88
2023/12/07 01:15:35;;;;;;;131.90;47.60;;;;;;;-1.66;100.00;100821.81;215873;1289;139760;-89
2023/12/07 01:20:36;;;;;;;127.10;47.40;;;;;;;-1.66;100.00;100821.98;214954;1291;142465;-89
2023/12/07 01:25:37;;;;;;;134.10;47.80;;;;;;;-1.67;100.00;100822.60;215798;1290;97854;-88
2023/12/07 01:30:38;;;;;;;144.00;49.30;;;;;;;-1.66;100.00;100823.77;215213;1290;141432;-90
2023/12/07 01:35:38;;;;;;;134.10;49.50;;;;;;;-1.68;100.00;100825.45;215364;1295;139793;-90
2023/12/07 01:40:38;;;;;;;130.10;48.80;;;;;;;-1.69;100.00;100829.20;215054;1291;142271;-90
2023/12/07 01:45:39;;;;;;;128.10;47.60;;;;;;;-1.68;100.00;100826.44;215373;1290;140272;-90
2023/12/07 01:50:40;;;;;;;135.10;49.40;;;;;;;-1.67;100.00;100831.23;215038;1290;142650;-90
2023/12/07 01:55:40;;;;;;;163.40;58.50;;;;;;;-1.68;100.00;100828.53;215622;1290;97898;-90
2023/12/07 02:00:41;;;;;;;129.70;46.90;;;;;;;-1.67;100.00;100829.34;214964;1295;140951;-89
2023/12/07 02:05:46;;;;;;;138.50;51.80;;;;;;;-1.65;100.00;100830.77;215568;1292;140923;-90
2023/12/07 02:10:46;;;;;;;137.70;52.40;;;;;;;-1.65;100.00;100835.53;214974;1294;143735;-89
2023/12/07 02:15:47;;;;;;;134.80;49.60;;;;;;;-1.65;100.00;100841.29;215549;1293;139851;-90
2023/12/07 02:21:09;;;;;;;123.10;50.00;;;;;;;-1.63;100.00;100839.27;215109;1290;142755;-89
2023/12/07 02:26:28;;;;;;;124.40;48.40;;;;;;;-1.65;100.00;100835.54;215601;1291;139829;-89
2023/12/07 02:31:30;;;;;;;128.80;46.30;;;;;;;-1.65;100.00;100834.92;215069;1289;141970;-88
2023/12/07 02:36:34;;;;;;;116.60;41.90;;;;;;;-1.63;100.00;100834.20;215594;1289;140242;-87
2023/12/07 02:41:36;;;;;;;129.00;47.30;;;;;;;-1.63;100.00;100834.36;214908;1289;141739;-88
2023/12/07 02:46:37;;;;;;;124.90;44.20;;;;;;;-1.62;100.00;100838.17;215554;1289;141360;-90
2023/12/07 02:51:38;;;;;;;107.90;42.30;;;;;;;-1.61;100.00;100839.04;215006;1289;141404;-90
2023/12/07 02:56:38;;;;;;;124.00;45.90;;;;;;;-1.61;100.00;100838.83;215430;1295;140316;-89
2023/12/07 03:01:39;;;;;;;143.70;50.50;;;;;;;-1.59;100.00;100843.71;215170;1289;142101;-89
2023/12/07 03:06:39;;;;;;;147.70;50.10;;;;;;;-1.56;100.00;100845.68;215610;1293;140106;-89
2023/12/07 03:11:39;;;;;;;354.70;103.50;;;;;;;-1.52;100.00;100852.22;215104;1293;141675;-89
2023/12/07 03:16:40;;;;;;;260.90;73.80;;;;;;;-1.51;100.00;100855.17;216169;1289;139918;-89
2023/12/07 03:21:42;;;;;;;179.90;52.90;;;;;;;-1.50;100.00;100859.15;215074;1296;143040;-89
2023/12/07 03:26:43;;;;;;;194.60;59.90;;;;;;;-1.50;100.00;100865.42;215640;1295;139978;-89
2023/12/07 03:31:43;;;;;;;165.40;54.10;;;;;;;-1.50;100.00;100874.27;215165;1295;142461;-89
2023/12/07 03:36:48;;;;;;;304.20;82.30;;;;;;;-1.48;100.00;100874.89;215472;1289;140629;-90
2023/12/07 03:41:49;;;;;;;164.30;52.90;;;;;;;-1.46;100.00;100881.84;214523;1293;141413;-89
2023/12/07 03:46:50;;;;;;;140.20;50.70;;;;;;;-1.46;100.00;100891.83;215113;1293;141398;-89
2023/12/07 03:51:50;;;;;;;123.60;43.60;;;;;;;-1.44;100.00;100900.49;214825;1289;142648;-89
2023/12/07 03:56:51;;;;;;;115.40;41.30;;;;;;;-1.42;100.00;100900.74;215156;1289;139961;-90
2023/12/07 04:01:51;;;;;;;116.10;42.20;;;;;;;-1.43;100.00;100904.05;214622;1289;140926;-90
2023/12/07 04:06:52;;;;;;;114.40;43.20;;;;;;;-1.40;100.00;100904.34;215189;1289;97856;-90
2023/12/07 04:11:52;;;;;;;123.40;44.70;;;;;;;-1.42;100.00;100908.35;214559;1288;141421;-89
2023/12/07 04:16:53;;;;;;;115.00;43.20;;;;;;;-1.47;100.00;100909.17;215100;1293;140028;-90
2023/12/07 04:21:53;;;;;;;120.00;42.80;;;;;;;-1.46;100.00;100903.91;214490;1289;141802;-89
2023/12/07 04:26:55;;;;;;;126.40;45.30;;;;;;;-1.45;100.00;100901.70;215181;1289;139687;-91
2023/12/07 04:31:55;;;;;;;111.40;41.90;;;;;;;-1.47;100.00;100902.64;214713;1288;141781;-89
2023/12/07 04:36:56;;;;;;;114.20;43.60;;;;;;;-1.49;100.00;100908.86;215451;1290;97832;-89
2023/12/07 04:41:56;;;;;;;116.20;43.30;;;;;;;-1.50;100.00;100903.41;215057;1288;141686;-89
2023/12/07 04:46:56;;;;;;;132.60;46.50;;;;;;;-1.50;100.00;100904.39;215572;1289;140607;-90
2023/12/07 04:51:57;;;;;;;118.50;44.10;;;;;;;-1.49;100.00;100900.48;215106;1289;141673;-89
2023/12/07 04:56:57;;;;;;;117.70;43.80;;;;;;;-1.45;100.00;100909.99;215639;1290;139768;-89
2023/12/07 05:01:58;;;;;;;113.30;41.60;;;;;;;-1.40;100.00;100915.73;216286;1289;141553;-89
2023/12/07 05:06:59;;;;;;;117.90;44.30;;;;;;;-1.36;100.00;100917.52;217960;1288;96161;-90
2023/12/07 05:12:00;;;;;;;104.90;38.00;;;;;;;-1.34;100.00;100925.65;217519;1288;141872;-91
2023/12/07 05:17:01;;;;;;;113.80;42.30;;;;;;;-1.34;100.00;100929.38;217996;1289;139881;-90
2023/12/07 05:22:01;;;;;;;156.70;51.50;;;;;;;-1.30;100.00;100932.80;217628;1290;141782;-89
2023/12/07 05:27:03;;;;;;;120.90;45.20;;;;;;;-1.24;100.00;100941.75;218170;1289;141748;-90
2023/12/07 05:32:04;;;;;;;116.70;43.60;;;;;;;-1.20;100.00;100951.20;216679;1289;141793;-89
2023/12/07 05:37:04;;;;;;;104.90;42.10;;;;;;;-1.22;100.00;100961.36;215979;1292;97925;-89
2023/12/07 05:42:05;;;;;;;112.40;43.30;;;;;;;-1.21;100.00;100959.54;214970;1288;141839;-89
2023/12/07 05:47:07;;;;;;;104.60;41.10;;;;;;;-1.18;100.00;100955.98;215618;1290;140088;-90
2023/12/07 05:52:08;;;;;;;116.80;40.60;;;;;;;-1.16;100.00;100955.81;214962;1290;141593;-88
2023/12/07 05:57:08;;;;;;;113.90;43.40;;;;;;;-1.16;100.00;100955.55;215276;1289;139771;-88
2023/12/07 06:02:09;;;;;;;205.90;65.40;;;;;;;-1.18;100.00;100955.67;214610;1289;142552;-89
2023/12/07 06:07:09;;;;;;;191.40;61.70;;;;;;;-1.18;100.00;100956.52;215298;1289;98003;-88
2023/12/07 06:12:10;;;;;;;339.40;87.10;;;;;;;-1.18;100.00;100960.14;214588;1293;142743;-88
2023/12/07 06:17:11;;;;;;;300.50;74.40;;;;;;;-1.14;100.00;100964.70;215040;1292;139964;-88
2023/12/07 06:22:13;;;;;;;163.40;55.10;;;;;;;-1.17;100.00;100976.44;214423;1289;141538;-89
2023/12/07 06:27:14;;;;;;;183.00;64.50;;;;;;;-1.17;100.00;100978.23;217971;1288;139745;-90
2023/12/07 06:32:15;;;;;;;140.90;51.90;;;;;;;-1.18;100.00;100988.92;217714;1289;141806;-89
2023/12/07 06:37:17;;;;;;;128.50;46.60;;;;;;;-1.18;100.00;100997.85;218386;1289;95995;-89
2023/12/07 06:42:18;;;;;;;123.70;45.30;;;;;;;-1.17;100.00;100996.80;217633;1289;141350;-90
2023/12/07 06:47:18;;;;;;;113.60;44.60;;;;;;;-1.20;100.00;100994.73;218022;1289;140210;-90
2023/12/07 06:52:19;;;;;;;121.40;47.90;;;;;;;-1.19;100.00;100997.96;214847;1289;141066;-90
2023/12/07 06:57:21;;;;;;;133.60;47.30;;;;;;;-1.14;100.00;101002.17;215431;1290;140373;-90
2023/12/07 07:02:23;;;;;;;120.30;44.20;;;;;;;-1.12;100.00;101007.14;214576;1290;141549;-89
2023/12/07 07:07:23;;;;;;;123.90;47.10;;;;;;;-1.08;100.00;101016.81;215186;1289;105752;-90
2023/12/07 07:12:24;;;;;;;129.20;47.80;;;;;;;-1.02;100.00;101022.64;214688;1289;141045;-90
2023/12/07 07:17:24;;;;;;;127.60;49.10;;;;;;;-1.00;100.00;101022.39;215126;1290;140155;-90
2023/12/07 07:22:25;;;;;;;127.30;45.00;;;;;;;-1.03;100.00;101014.98;214703;1289;141375;-91
2023/12/07 07:27:25;;;;;;;111.10;41.90;;;;;;;-1.02;100.00;101017.13;215130;1290;140314;-90
2023/12/07 07:32:26;;;;;;;127.10;45.40;;;;;;;-1.01;100.00;101014.09;214659;1289;141730;-91
2023/12/07 07:37:26;;;;;;;126.40;45.60;;;;;;;-0.95;100.00;101024.45;215400;1289;98259;-91
2023/12/07 07:42:27;;;;;;;122.80;45.60;;;;;;;-0.92;100.00;101032.41;214703;1290;140830;-91
2023/12/07 07:47:27;;;;;;;125.80;46.50;;;;;;;-0.95;100.00;101030.35;215287;1290;139555;-90
2023/12/07 07:52:28;;;;;;;128.90;47.90;;;;;;;-0.98;100.00;101036.48;214699;1290;142224;-90
2023/12/07 07:57:30;;;;;;;121.30;47.10;;;;;;;-0.97;100.00;101034.21;215188;1289;139786;-90
2023/12/07 08:02:30;;;;;;;114.40;46.10;;;;;;;-0.98;100.00;101030.48;214643;1289;144032;-90
2023/12/07 08:07:31;;;;;;;118.00;45.30;;;;;;;-0.97;100.00;101023.02;215308;1290;97936;-91
2023/12/07 08:12:33;;;;;;;135.00;48.90;;;;;;;-0.94;100.00;101028.80;214735;1289;141402;-92
2023/12/07 08:17:33;;;;;;;126.90;47.00;;;;;;;-0.92;100.00;101036.89;215215;1290;138655;-91
2023/12/07 08:22:34;;;;;;;122.80;47.80;;;;;;;-0.85;100.00;101037.70;214719;1289;141757;-90
2023/12/07 08:27:34;;;;;;;129.60;49.30;;;;;;;-0.77;100.00;101042.19;215314;1289;139729;-91
2023/12/07 08:32:35;;;;;;;125.60;46.40;;;;;;;-0.69;100.00;101040.91;214825;1290;145543;-91
2023/12/07 08:37:38;;;;;;;121.50;47.10;;;;;;;-0.67;100.00;101046.51;215494;1290;98475;-91
2023/12/07 08:42:39;;;;;;;128.20;46.30;;;;;;;-0.63;100.00;101052.70;214730;1290;140839;-90
2023/12/07 08:47:40;;;;;;;116.60;43.00;;;;;;;-0.64;100.00;101059.45;215139;1289;140876;-90
2023/12/07 08:52:41;;;;;;;128.10;47.10;;;;;;;-0.67;100.00;101061.55;214760;1290;141011;-91
2023/12/07 08:57:42;;;;;;;132.40;48.30;;;;;;;-0.69;100.00;101058.91;216509;1288;139777;-91
2023/12/07 09:02:43;;;;;;;124.50;47.80;;;;;;;-0.66;100.00;101051.95;215992;1289;144060;-89
2023/12/07 09:07:44;;;;;;;132.20;47.00;;;;;;;-0.59;100.00;101053.83;215383;1289;98317;-91
2023/12/07 09:12:44;;;;;;;134.40;45.80;;;;;;;-0.51;100.00;101056.49;214787;1289;141645;-92
2023/12/07 09:17:51;;;;;;;140.20;49.80;;;;;;;-0.46;100.00;101065.08;215287;1290;139837;-91
2023/12/07 09:22:51;;;;;;;;;;;;;;;-0.45;100.00;101066.15;214677;1289;141619;-90
2023/12/07 09:27:52;;;;;;;129.50;47.00;;;;;;;-0.46;100.00;101063.30;215227;1289;125716;-89
2023/12/07 09:32:52;;;;;;;137.10;49.90;;;;;;;-0.45;100.00;101062.31;214684;1289;142607;-89
2023/12/07 09:37:52;;;;;;;127.60;48.50;;;;;;;-0.40;100.00;101061.55;215239;1289;139931;-87
2023/12/07 09:42:53;;;;;;;135.90;49.20;;;;;;;-0.31;100.00;101056.08;214845;1290;142188;-91
2023/12/07 09:47:54;;;;;;;129.90;48.40;;;;;;;-0.23;100.00;101059.98;215019;1289;243838;-91
2023/12/07 09:52:58;;;;;;;129.00;48.10;;;;;;;-0.22;100.00;101059.52;214719;1289;142167;-90
2023/12/07 09:57:59;;;;;;;151.10;52.20;;;;;;;-0.17;100.00;101054.92;215241;1289;139560;-89
2023/12/07 10:02:59;;;;;;;137.00;53.10;;;;;;;-0.19;100.00;101051.83;214779;1290;141172;-90
2023/12/07 10:08:00;;;;;;;135.30;51.90;;;;;;;-0.17;100.00;101055.09;215366;1290;139591;-90
2023/12/07 10:13:01;;;;;;;136.30;49.10;;;;;;;-0.10;100.00;101055.63;214741;1289;141885;-90
2023/12/07 10:18:01;;;;;;;143.50;51.00;;;;;;;-0.05;100.00;101055.84;215191;1289;140791;-90
2023/12/07 10:23:07;;;;;;;152.70;53.70;;;;;;;0.02;100.00;101059.69;214517;1289;140910;-89
2023/12/07 10:28:11;;;;;;;136.40;57.70;;;;;;;0.07;100.00;101056.91;216580;1289;139729;-90
2023/12/07 10:33:13;;;;;;;157.00;58.20;;;;;;;0.06;100.00;101054.45;216055;1290;142367;-89
2023/12/07 10:38:13;;;;;;;242.40;84.20;;;;;;;0.05;100.00;101050.02;215151;1290;139513;-89
2023/12/07 10:43:16;;;;;;;168.00;59.70;;;;;;;0.08;100.00;101050.23;214685;1290;140747;-90
2023/12/07 10:48:17;;;;;;;147.20;53.40;;;;;;;0.17;100.00;101047.56;215289;1288;140909;-90
2023/12/07 10:53:26;;;;;;;150.10;58.00;;;;;;;0.20;100.00;101040.96;214501;1288;141639;-89
2023/12/07 10:58:27;;;;;;;154.80;56.10;;;;;;;0.24;100.00;101039.65;215019;1290;140689;-90
2023/12/07 11:03:32;;;;;;;136.60;50.40;;;;;;;0.30;100.00;101039.63;214656;1289;140993;-90
2023/12/07 11:08:43;;;;;;;143.30;52.30;;;;;;;0.31;100.00;101041.23;215174;1290;139398;-91
2023/12/07 11:14:00;;;;;;;173.00;72.20;;;;;;;0.30;100.00;101042.94;214861;1289;140840;-89
2023/12/07 11:19:01;;;;;;;186.90;65.30;;;;;;;0.38;100.00;101038.89;215128;1289;98097;-89
2023/12/07 11:24:06;;;;;;;159.10;58.40;;;;;;;0.40;100.00;101038.44;214729;1289;140515;-90
2023/12/07 11:29:07;;;;;;;135.00;51.60;;;;;;;0.46;100.00;101040.50;215023;1290;139630;-89
2023/12/07 11:34:13;;;;;;;143.70;56.30;;;;;;;0.46;100.00;101029.88;214982;1289;140816;-89
2023/12/07 11:39:14;;;;;;;;;;;;;;;0.40;100.00;101023.43;215183;1289;139495;-89
2023/12/07 11:44:14;;;;;;;142.90;55.00;;;;;;;0.38;100.00;101024.27;214787;1289;127996;-89
2023/12/07 11:49:15;;;;;;;146.40;55.20;;;;;;;0.43;100.00;101022.48;215461;1289;97942;-90
2023/12/07 11:54:17;;;;;;;154.80;53.90;;;;;;;0.51;100.00;101026.39;214829;1290;140573;-90
2023/12/07 11:59:17;;;;;;;143.80;57.20;;;;;;;0.57;100.00;101028.99;215200;1290;139253;-88
2023/12/07 12:04:18;;;;;;;158.60;60.90;;;;;;;0.63;100.00;101032.63;214747;1289;141026;-89
2023/12/07 12:09:19;;;;;;;157.80;59.50;;;;;;;0.65;100.00;101030.43;215173;1293;139413;-89
2023/12/07 12:14:19;;;;;;;154.50;58.80;;;;;;;0.63;100.00;101025.11;214522;1291;142554;-88
2023/12/07 12:19:22;;;;;;;156.20;56.70;;;;;;;0.64;100.00;101024.77;215289;1290;98073;-89
2023/12/07 12:24:22;;;;;;;143.20;54.20;;;;;;;0.69;100.00;101024.05;215154;1290;143603;-89
2023/12/07 12:29:23;;;;;;;162.70;61.20;;;;;;;0.72;100.00;101022.14;216295;1290;139538;-90
2023/12/07 12:34:25;;;;;;;165.90;61.40;;;;;;;0.70;100.00;101031.16;215035;1289;142452;-90
2023/12/07 12:39:32;;;;;;;179.80;62.30;;;;;;;0.70;100.00;101036.21;215092;1290;139477;-89
2023/12/07 12:44:33;;;;;;;168.10;62.20;;;;;;;0.71;100.00;101040.48;215366;1290;140493;-89
2023/12/07 12:49:41;;;;;;;167.00;64.40;;;;;;;0.72;100.00;101040.45;215270;1290;97866;-89
2023/12/07 12:54:44;;;;;;;159.70;61.20;;;;;;;0.67;100.00;101031.21;214891;1289;140723;-89
2023/12/07 12:59:45;;;;;;;177.10;62.60;;;;;;;0.67;100.00;101027.48;214710;1290;140797;-89
2023/12/07 13:04:45;;;;;;;153.90;60.20;;;;;;;0.69;100.00;101035.67;215210;1290;140264;-88
2023/12/07 13:09:46;;;;;;;170.10;63.40;;;;;;;0.70;100.00;101044.07;214615;1293;165718;-89
2023/12/07 13:14:46;;;;;;;168.30;65.70;;;;;;;0.71;100.00;101037.11;215323;1290;140434;-88
2023/12/07 13:19:47;;;;;;;176.80;64.00;;;;;;;0.73;100.00;101041.50;215206;1289;142350;-89
2023/12/07 13:24:49;;;;;;;175.80;67.20;;;;;;;0.73;100.00;101036.98;215210;1290;139926;-90
2023/12/07 13:29:50;;;;;;;170.60;64.90;;;;;;;0.71;100.00;101034.56;214507;1289;141561;-88
2023/12/07 13:34:51;;;;;;;181.60;72.30;;;;;;;0.71;100.00;101042.79;215347;1290;141037;-88
2023/12/07 13:39:57;;;;;;;174.80;69.80;;;;;;;0.67;100.00;101041.04;214796;1290;141153;-90
2023/12/07 13:45:00;;;;;;;166.80;65.80;;;;;;;0.65;100.00;101043.42;215575;1289;139965;-89
2023/12/07 13:50:01;;;;;;;159.70;63.40;;;;;;;0.68;100.00;101045.50;215180;1290;141066;-89
2023/12/07 13:55:02;;;;;;;172.60;63.20;;;;;;;0.68;100.00;101052.81;215701;1290;97860;-89
2023/12/07 14:00:03;;;;;;;162.50;60.70;;;;;;;0.64;100.00;101056.58;215138;1289;140684;-88
2023/12/07 14:05:04;;;;;;;171.90;62.70;;;;;;;0.60;100.00;101054.54;215593;1289;139536;-89
2023/12/07 14:10:05;;;;;;;186.40;67.90;;;;;;;0.64;100.00;101055.86;214933;1289;140932;-89
2023/12/07 14:15:07;;;;;;;180.70;64.80;;;;;;;0.62;100.00;101057.90;215443;1290;138575;-89
2023/12/07 14:20:08;;;;;;;191.30;66.90;;;;;;;0.63;100.00;101062.92;214814;1290;141254;-89
2023/12/07 14:25:10;;;;;;;166.90;62.90;;;;;;;0.64;100.00;101067.29;215133;1289;98176;-90
2023/12/07 14:30:10;;;;;;;181.30;63.80;;;;;;;0.65;100.00;101071.88;214373;1290;140879;-90
2023/12/07 14:35:12;;;;;;;153.40;58.80;;;;;;;0.63;100.00;101074.30;214964;1289;139681;-90
2023/12/07 14:40:16;;;;;;;208.00;71.00;;;;;;;0.64;100.00;101080.95;214661;1290;141783;-89
2023/12/07 14:45:20;;;;;;;200.00;69.10;;;;;;;0.62;100.00;101085.15;215091;1289;139577;-90
2023/12/07 14:50:20;;;;;;;172.20;64.70;;;;;;;0.60;100.00;101083.23;214678;1293;142094;-89
2023/12/07 14:55:21;;;;;;;169.20;61.80;;;;;;;0.61;100.00;101084.89;215202;1293;98187;-89
2023/12/07 15:00:22;;;;;;;184.30;66.40;;;;;;;0.55;100.00;101079.25;214548;1293;146292;-89
2023/12/07 15:05:22;;;;;;;217.00;75.40;;;;;;;0.48;100.00;101080.34;214994;1289;139574;-90
2023/12/07 15:10:22;;;;;;;227.10;75.40;;;;;;;0.40;100.00;101077.48;214558;1290;142300;-90
2023/12/07 15:15:23;;;;;;;206.60;75.20;;;;;;;0.36;100.00;101073.59;215369;1290;139529;-90
2023/12/07 15:20:24;;;;;;;196.20;73.00;;;;;;;0.36;100.00;101078.73;214898;1291;141133;-91
2023/12/07 15:25:24;;;;;;;190.30;73.10;;;;;;;0.33;100.00;101084.75;217004;1289;99075;-91
2023/12/07 15:30:28;;;;;;;171.40;65.80;;;;;;;0.32;100.00;101078.80;217705;1289;141322;-91
2023/12/07 15:35:29;;;;;;;228.20;78.40;;;;;;;0.27;100.00;101074.64;218367;1289;139575;-93
2023/12/07 15:40:29;;;;;;;222.90;74.00;;;;;;;0.20;100.00;101072.58;216735;1289;141388;-90
2023/12/07 15:45:30;;;;;;;185.90;68.40;;;;;;;0.14;100.00;101077.48;215482;1291;139434;-89
2023/12/07 15:50:30;;;;;;;185.90;70.20;;;;;;;0.12;100.00;101076.03;214946;1289;141091;-89
2023/12/07 15:55:31;;;;;;;188.60;69.30;;;;;;;0.12;100.00;101076.81;215328;1291;97865;-89
2023/12/07 16:00:31;;;;;;;179.10;66.00;;;;;;;0.11;100.00;101073.48;214950;1292;140344;-90
2023/12/07 16:05:33;;;;;;;241.80;87.30;;;;;;;0.09;100.00;101076.70;215431;1291;139624;-89
2023/12/07 16:10:33;;;;;;;233.40;81.30;;;;;;;0.02;100.00;101078.89;217792;1288;140959;-88
2023/12/07 16:15:34;;;;;;;181.80;67.70;;;;;;;-0.02;100.00;101078.70;216993;1290;139485;-90
2023/12/07 16:20:35;;;;;;;181.40;69.10;;;;;;;-0.03;100.00;101078.70;214671;1288;141250;-90
2023/12/07 16:25:35;;;;;;;179.70;70.00;;;;;;;0.01;100.00;101080.32;215494;1288;97881;-89
2023/12/07 16:30:35;;;;;;;181.40;67.90;;;;;;;0.02;100.00;101085.60;214890;1293;141791;-90
2023/12/07 16:35:36;;;;;;;170.00;68.00;;;;;;;-0.00;100.00;101088.99;215325;1291;139413;-90
2023/12/07 16:40:36;;;;;;;193.30;79.40;;;;;;;0.00;100.00;101089.48;214988;1290;141451;-90
2023/12/07 16:45:37;;;;;;;209.10;77.50;;;;;;;0.02;100.00;101092.64;215376;1291;139439;-90
2023/12/07 16:50:37;;;;;;;187.70;72.50;;;;;;;0.03;100.00;101087.98;214843;1291;141286;-90
2023/12/07 16:55:37;;;;;;;208.70;75.50;;;;;;;0.01;100.00;101092.42;215300;1289;97904;-89
2023/12/07 17:00:40;;;;;;;299.00;106.00;;;;;;;-0.00;100.00;101089.71;214887;1291;141093;-88
2023/12/07 17:05:43;;;;;;;327.20;120.40;;;;;;;-0.01;100.00;101085.45;215486;1291;139955;-88
2023/12/07 17:10:53;;;;;;;329.30;110.00;;;;;;;-0.03;100.00;101082.48;215027;1289;142750;-88
2023/12/07 17:15:53;;;;;;;238.90;81.90;;;;;;;-0.04;100.00;101083.85;215061;1290;140014;-87
2023/12/07 17:20:54;;;;;;;210.60;82.10;;;;;;;-0.03;100.00;101080.36;214373;1290;141053;-87
2023/12/07 17:26:43;;;;;;;;;;;;;;;;;;;;;
2023/12/07 17:31:52;;;;;;;168.70;56.00;;;;;;;-0.03;100.00;101091.36;214220;1295;141289;-87
2023/12/07 17:36:52;;;;;;;207.00;75.90;;;;;;;-0.02;100.00;101094.54;215410;1290;139406;-86
2023/12/07 17:41:53;;;;;;;222.40;79.80;;;;;;;-0.02;100.00;101092.96;214807;1293;142275;-87
2023/12/07 17:46:54;;;;;;;195.30;74.20;;;;;;;-0.03;100.00;101095.63;215550;1290;139800;-87
2023/12/07 17:51:54;;;;;;;232.50;87.70;;;;;;;-0.07;100.00;101096.50;214822;1289;141333;-87
2023/12/07 17:56:55;;;;;;;209.80;78.10;;;;;;;-0.10;100.00;101089.13;214936;1289;139744;-86
2023/12/07 18:01:56;;;;;;;219.40;80.80;;;;;;;-0.07;100.00;101086.64;214309;1290;142110;-89
2023/12/07 18:06:56;;;;;;;202.70;76.30;;;;;;;-0.06;100.00;101086.53;214655;1290;139564;-89
2023/12/07 18:11:58;;;;;;;180.20;71.20;;;;;;;-0.06;100.00;101081.39;214166;1296;141769;-88
2023/12/07 18:16:59;;;;;;;189.90;72.10;;;;;;;-0.07;100.00;101083.63;214961;1289;139579;-88
2023/12/07 18:22:01;;;;;;;196.50;71.20;;;;;;;-0.12;100.00;101081.73;214836;1291;141271;-88
2023/12/07 18:27:01;;;;;;;181.20;65.90;;;;;;;-0.15;100.00;101082.48;215118;1291;139626;-90
2023/12/07 18:32:05;;;;;;;182.40;70.40;;;;;;;-0.12;100.00;101092.50;214626;1293;141581;-90
2023/12/07 18:37:07;;;;;;;186.70;68.30;;;;;;;-0.18;100.00;101085.70;215116;1289;139538;-90
2023/12/07 18:42:09;;;;;;;193.00;70.40;;;;;;;-0.19;100.00;101090.05;214520;1293;141605;-91
2023/12/07 18:47:10;;;;;;;185.90;66.80;;;;;;;-0.15;100.00;101095.63;215088;1293;139585;-90
2023/12/07 18:52:10;;;;;;;168.80;61.80;;;;;;;-0.11;100.00;101106.88;214456;1289;142734;-92
2023/12/07 18:57:11;;;;;;;172.20;61.00;;;;;;;-0.05;100.00;101112.17;215069;1290;140539;-91
2023/12/07 19:02:13;;;;;;;161.20;57.80;;;;;;;-0.03;100.00;101115.66;214616;1289;141678;-92
2023/12/07 19:07:13;;;;;;;167.80;58.90;;;;;;;-0.03;100.00;101114.58;215212;1293;105912;-90
2023/12/07 19:12:14;;;;;;;164.30;60.10;;;;;;;-0.03;100.00;101115.44;214598;1293;140680;-92
2023/12/07 19:17:14;;;;;;;184.70;65.00;;;;;;;-0.03;100.00;101118.69;215034;1293;139800;-93
2023/12/07 19:22:15;;;;;;;172.60;62.10;;;;;;;-0.02;100.00;101118.79;214556;1290;141718;-91
2023/12/07 19:27:18;;;;;;;177.90;63.10;;;;;;;-0.02;100.00;101120.70;215075;1290;140344;-91
2023/12/07 19:32:18;;;;;;;165.70;58.90;;;;;;;-0.03;100.00;101118.80;214872;1290;141203;-91
2023/12/07 19:37:19;;;;;;;184.80;62.00;;;;;;;-0.05;100.00;101124.52;215437;1293;97966;-90
2023/12/07 19:42:20;;;;;;;184.10;64.00;;;;;;;-0.06;100.00;101126.19;214442;1289;141653;-91
2023/12/07 19:47:20;;;;;;;172.60;58.50;;;;;;;-0.05;100.00;101118.55;215101;1292;139681;-90
2023/12/07 19:52:21;;;;;;;181.80;64.10;;;;;;;-0.04;100.00;101115.58;214626;1290;140518;-93
2023/12/07 19:57:22;;;;;;;172.90;63.60;;;;;;;-0.03;100.00;101122.37;214821;1291;140201;-90
2023/12/07 20:02:23;;;;;;;181.10;67.40;;;;;;;-0.02;100.00;101119.38;214611;1293;142936;-92
2023/12/07 20:07:23;;;;;;;170.30;65.00;;;;;;;-0.03;100.00;101117.77;215307;1293;98631;-90
2023/12/07 20:12:24;;;;;;;172.90;61.50;;;;;;;-0.05;100.00;101111.45;214224;1293;141877;-91
2023/12/07 20:17:24;;;;;;;166.50;59.90;;;;;;;-0.08;100.00;101102.36;215009;1289;141310;-90
2023/12/07 20:22:25;;;;;;;178.00;64.10;;;;;;;-0.11;100.00;101097.27;214689;1290;141304;-90
2023/12/07 20:27:26;;;;;;;201.60;73.80;;;;;;;-0.12;100.00;101090.50;215272;1290;140505;-90
2023/12/07 20:32:26;;;;;;;179.40;68.50;;;;;;;-0.12;100.00;101095.48;214787;1290;141967;-90
2023/12/07 20:37:30;;;;;;;195.30;69.60;;;;;;;-0.12;100.00;101095.33;215359;1293;98366;-90
2023/12/07 20:42:30;;;;;;;181.80;67.80;;;;;;;-0.10;100.00;101080.02;215056;1293;141270;-89
2023/12/07 20:47:31;;;;;;;194.80;71.90;;;;;;;-0.12;100.00;101071.89;215344;1289;139659;-90
2023/12/07 20:52:41;;;;;;;195.80;74.70;;;;;;;-0.13;100.00;101061.63;214829;1289;141633;-90
2023/12/07 20:57:43;;;;;;;202.00;75.70;;;;;;;-0.12;100.00;101066.27;215122;1293;139709;-91
2023/12/07 21:02:44;;;;;;;185.30;69.10;;;;;;;-0.14;100.00;101051.19;214391;1293;144590;-92
2023/12/07 21:07:45;;;;;;;179.10;68.10;;;;;;;-0.20;100.00;101048.63;215927;1293;96622;-94
2023/12/07 21:12:45;;;;;;;182.90;66.60;;;;;;;-0.22;100.00;101057.74;215421;1293;141259;-94
2023/12/07 21:23:06;;;;;;;179.90;66.00;;;;;;;-0.23;100.00;101044.14;215224;1290;141122;-89
2023/12/07 21:28:06;;;;;;;192.80;71.60;;;;;;;-0.21;100.00;101038.27;215584;1292;140125;-87
2023/12/07 21:33:08;;;;;;;180.40;66.50;;;;;;;-0.19;100.00;101026.65;215161;1291;141638;-87
2023/12/07 21:38:12;;;;;;;189.40;69.40;;;;;;;-0.16;100.00;101036.35;215648;1291;96598;-88
2023/12/07 21:43:15;;;;;;;195.20;73.10;;;;;;;-0.13;100.00;101029.95;214918;1292;141554;-89
2023/12/07 21:48:16;;;;;;;203.40;75.30;;;;;;;-0.13;100.00;101023.71;214838;1289;530233;-88
2023/12/07 21:53:17;;;;;;;188.90;73.50;;;;;;;-0.16;100.00;101013.48;214421;1290;141691;-87
2023/12/07 21:58:17;;;;;;;184.50;67.30;;;;;;;-0.17;100.00;101016.62;214963;1291;139802;-87
2023/12/07 22:03:18;;;;;;;184.40;66.50;;;;;;;-0.20;100.00;101021.48;214758;1290;140737;-88